Time;durP1;ratioP1;P1;durP2;ratioP2;P2;SDS_P1;SDS_P2;PMS_P1;PMS_P2;Temp;Humidity;BMP_temperature;BMP_pressure;BME280_temperature;BME280_humidity;BME280_pressure;Samples;Min_cycle;Max_cycle;Signal;HPM_P1;HPM_P2
2022/12/28 00:02:26;;;;;;;14.40;8.63;;;5.70;99.90;;;;;;5069018;28;20056;-80
2022/12/28 00:05:12;;;;;;;17.40;5.75;;;5.70;99.90;;;;;;5056041;28;20546;-83
2022/12/28 00:07:58;;;;;;;12.00;5.53;;;5.70;99.90;;;;;;5037656;28;20059;-79
2022/12/28 00:10:44;;;;;;;15.63;6.55;;;5.70;99.90;;;;;;5069138;28;20057;-81
2022/12/28 00:13:32;;;;;;;17.40;5.25;;;5.70;99.90;;;;;;5038808;28;20047;-85
2022/12/28 00:16:36;;;;;;;13.77;4.95;;;5.70;99.90;;;;;;5069884;28;20139;-85
2022/12/28 00:19:22;;;;;;;15.50;5.53;;;5.70;99.90;;;;;;5058333;28;20488;-81
2022/12/28 00:22:09;;;;;;;13.27;5.13;;;5.70;99.90;;;;;;5090135;28;20047;-78
2022/12/28 00:24:55;;;;;;;14.32;5.47;;;5.70;99.90;;;;;;5071342;28;20040;-78
2022/12/28 00:27:41;;;;;;;15.40;6.22;;;5.70;99.90;;;;;;5089038;28;20498;-82
2022/12/28 00:30:27;;;;;;;12.25;4.80;;;5.70;99.90;;;;;;5089560;28;20051;-79
2022/12/28 00:33:14;;;;;;;18.65;5.20;;;5.70;99.90;;;;;;5071596;28;20534;-77
2022/12/28 00:36:01;;;;;;;15.13;5.70;;;5.70;99.90;;;;;;5089981;28;20048;-80
2022/12/28 00:38:48;;;;;;;15.57;5.38;;;5.70;99.90;;;;;;5088986;28;20109;-83
2022/12/28 00:41:34;;;;;;;15.10;6.18;;;5.80;99.90;;;;;;5070490;28;20503;-77
2022/12/28 00:44:20;;;;;;;12.48;5.20;;;5.80;99.90;;;;;;5071611;28;20147;-77
2022/12/28 00:47:07;;;;;;;13.93;5.85;;;5.80;99.90;;;;;;5057208;28;20486;-79
2022/12/28 00:49:53;;;;;;;13.27;5.75;;;5.80;99.90;;;;;;5057468;28;20051;-79
2022/12/28 00:52:39;;;;;;;13.52;6.13;;;5.80;99.90;;;;;;5089274;28;20059;-77
2022/12/28 00:55:25;;;;;;;15.48;6.30;;;5.80;99.90;;;;;;5089479;28;20559;-81
2022/12/28 00:58:12;;;;;;;18.05;7.47;;;5.70;99.90;;;;;;5094107;28;20407;-80
2022/12/28 01:00:58;;;;;;;11.20;5.25;;;5.80;99.90;;;;;;5096597;28;20082;-78
2022/12/28 01:03:45;;;;;;;13.05;6.60;;;5.80;99.90;;;;;;5080786;28;20519;-78
2022/12/28 01:06:31;;;;;;;17.23;6.70;;;5.80;99.90;;;;;;5088692;28;20139;-82
2022/12/28 01:09:18;;;;;;;13.20;5.57;;;5.80;99.90;;;;;;5069215;28;20052;-84
2022/12/28 01:12:04;;;;;;;14.40;6.38;;;5.80;99.90;;;;;;5070131;28;20048;-78
2022/12/28 01:14:50;;;;;;;14.43;6.15;;;5.80;99.90;;;;;;5088836;28;20048;-78
2022/12/28 01:17:37;;;;;;;14.75;6.43;;;5.80;99.90;;;;;;5070127;28;20131;-77
2022/12/28 01:20:25;;;;;;;14.38;6.68;;;5.90;99.90;;;;;;5092873;28;20048;-83
2022/12/28 01:23:11;;;;;;;17.67;7.50;;;5.80;99.90;;;;;;5093181;28;20408;-78
2022/12/28 01:26:01;;;;;;;13.43;6.43;;;5.80;99.90;;;;;;5075456;28;20052;-77
2022/12/28 01:28:47;;;;;;;12.30;6.78;;;5.80;99.90;;;;;;5075432;28;20044;-82
2022/12/28 01:31:34;;;;;;;19.00;6.90;;;5.80;99.90;;;;;;5075952;28;20048;-79
2022/12/28 01:34:20;;;;;;;13.25;5.53;;;5.90;99.90;;;;;;5074255;28;20089;-82
2022/12/28 01:37:06;;;;;;;15.85;7.75;;;5.90;99.90;;;;;;5093281;28;20044;-78
2022/12/28 01:39:52;;;;;;;16.02;6.78;;;5.90;99.90;;;;;;5075528;28;20071;-77
2022/12/28 01:42:39;;;;;;;18.77;8.32;;;5.90;99.90;;;;;;5075234;28;20055;-80
2022/12/28 01:45:25;;;;;;;12.50;7.45;;;5.90;99.90;;;;;;5093668;28;20127;-79
2022/12/28 01:48:22;;;;;;;14.13;7.57;;;6.00;99.90;;;;;;5093872;28;20056;-82
2022/12/28 01:51:08;;;;;;;14.77;7.00;;;5.90;99.90;;;;;;5060087;28;20040;-80
2022/12/28 01:53:58;;;;;;;20.48;8.15;;;6.00;99.90;;;;;;5074554;28;20101;-78
2022/12/28 01:56:45;;;;;;;15.45;8.23;;;6.00;99.90;;;;;;5074697;28;20059;-82
2022/12/28 01:59:34;;;;;;;16.70;7.93;;;6.00;99.90;;;;;;5074857;28;20055;-80
2022/12/28 02:02:22;;;;;;;22.75;8.63;;;5.90;99.90;;;;;;5093256;28;20119;-78
2022/12/28 02:05:08;;;;;;;17.92;8.75;;;5.90;99.90;;;;;;5074755;28;20114;-80
2022/12/28 02:08:02;;;;;;;19.10;11.10;;;5.80;99.90;;;;;;5092235;28;20052;-79
2022/12/28 02:10:50;;;;;;;17.58;9.63;;;5.90;99.90;;;;;;5077037;28;20048;-84
2022/12/28 02:13:38;;;;;;;18.80;9.10;;;5.90;99.90;;;;;;5093757;28;20091;-77
2022/12/28 02:16:24;;;;;;;17.38;9.82;;;5.90;99.90;;;;;;5052198;28;20063;-79
2022/12/28 02:19:14;;;;;;;22.92;9.73;;;5.80;99.90;;;;;;5077659;28;20519;-76
2022/12/28 02:22:16;;;;;;;16.23;9.95;;;5.90;99.90;;;;;;5090966;28;20044;-79
2022/12/28 02:25:13;;;;;;;18.80;10.10;;;5.90;99.90;;;;;;5073413;28;20403;-82
2022/12/28 02:28:05;;;;;;;22.17;11.43;;;5.90;99.90;;;;;;5076900;28;20052;-79
2022/12/28 02:31:03;;;;;;;21.88;11.00;;;5.90;99.90;;;;;;5072607;28;20131;-77
2022/12/28 02:34:33;;;;;;;23.08;12.38;;;6.00;99.90;;;;;;5074145;28;20054;-77
2022/12/28 02:37:25;;;;;;;19.20;11.23;;;5.90;99.90;;;;;;5025918;28;20044;-79
2022/12/28 02:40:26;;;;;;;20.38;10.10;;;6.00;99.90;;;;;;5073173;28;20040;-80
2022/12/28 02:43:13;;;;;;;21.92;11.55;;;6.00;99.90;;;;;;5091552;28;20101;-79
2022/12/28 02:52:51;;;;;;;19.92;11.73;;;6.00;99.90;;;;;;5072523;28;20051;-79
2022/12/28 02:56:07;;;;;;;17.05;10.93;;;6.10;99.90;;;;;;5076441;28;20137;-77
2022/12/28 02:59:32;;;;;;;18.20;11.10;;;6.10;99.90;;;;;;5090279;28;20048;-79
2022/12/28 03:02:28;;;;;;;22.53;11.97;;;6.10;99.90;;;;;;5092020;28;20517;-77
2022/12/28 03:09:12;;;;;;;21.25;12.57;;;6.10;99.90;;;;;;5091142;28;20044;-84
2022/12/28 03:12:02;;;;;;;27.63;13.05;;;6.20;99.90;;;;;;5076352;28;20138;-79
2022/12/28 03:14:56;;;;;;;18.67;11.50;;;6.20;99.90;;;;;;5091651;28;20157;-81
2022/12/28 03:33:17;;;;;;;19.20;13.57;;;6.40;99.90;;;;;;5077235;28;20048;-81
2022/12/28 03:36:36;;;;;;;25.67;13.38;;;6.30;99.90;;;;;;5076616;28;20456;-79
2022/12/28 03:39:22;;;;;;;20.35;14.18;;;6.40;99.90;;;;;;5091149;28;20145;-78
2022/12/28 03:45:48;;;;;;;21.05;12.45;;;6.40;99.90;;;;;;5072149;28;20051;-80
2022/12/28 03:48:36;;;;;;;21.53;12.87;;;6.40;99.90;;;;;;5090658;28;20493;-82
2022/12/28 03:51:24;;;;;;;21.02;13.68;;;6.40;99.90;;;;;;5090910;28;20524;-78
2022/12/28 03:54:15;;;;;;;21.30;14.18;;;6.50;99.90;;;;;;5090950;28;20044;-83
2022/12/28 03:57:01;;;;;;;21.40;13.35;;;6.50;99.90;;;;;;5072779;28;20385;-80
2022/12/28 03:59:47;;;;;;;25.10;15.10;;;6.50;99.90;;;;;;5072652;28;20067;-83
2022/12/28 04:02:34;;;;;;;26.88;13.70;;;6.50;99.90;;;;;;5072184;28;20075;-80
2022/12/28 04:05:20;;;;;;;23.70;15.07;;;6.50;99.90;;;;;;5075908;28;20483;-77
2022/12/28 04:08:06;;;;;;;20.92;13.98;;;6.50;99.90;;;;;;5085078;28;20080;-77
2022/12/28 04:10:53;;;;;;;18.73;12.32;;;6.50;99.90;;;;;;5094232;28;20420;-78
2022/12/28 04:13:39;;;;;;;19.50;13.40;;;6.60;99.90;;;;;;5063951;28;20052;-83
2022/12/28 04:16:25;;;;;;;21.92;13.60;;;6.60;99.90;;;;;;5095798;28;20048;-76
2022/12/28 04:19:11;;;;;;;20.10;12.75;;;6.60;99.90;;;;;;5096548;28;20134;-80
2022/12/28 04:21:58;;;;;;;25.60;15.43;;;6.60;99.90;;;;;;5073393;28;20048;-78
2022/12/28 04:24:44;;;;;;;20.27;12.85;;;6.70;99.90;;;;;;5090351;28;20514;-78
2022/12/28 04:27:30;;;;;;;21.52;14.23;;;6.70;99.90;;;;;;5072259;28;20052;-79
2022/12/28 04:30:17;;;;;;;21.55;14.00;;;6.70;99.90;;;;;;5075074;28;20048;-79
2022/12/28 04:33:03;;;;;;;19.17;12.25;;;6.70;99.90;;;;;;5072032;28;20052;-78
2022/12/28 04:35:49;;;;;;;24.08;14.25;;;6.70;99.90;;;;;;5072979;28;20129;-78
2022/12/28 04:38:35;;;;;;;24.63;14.35;;;6.70;99.90;;;;;;5071901;28;20162;-81
2022/12/28 04:41:22;;;;;;;21.63;14.25;;;6.70;99.90;;;;;;5058115;28;20135;-78
2022/12/28 04:44:08;;;;;;;23.35;15.38;;;6.70;99.90;;;;;;5072511;28;20055;-83
2022/12/28 04:46:54;;;;;;;21.65;14.48;;;6.80;99.90;;;;;;5070286;28;20503;-78
2022/12/28 04:49:40;;;;;;;23.48;14.32;;;6.80;99.90;;;;;;5071803;28;20514;-79
2022/12/28 04:52:27;;;;;;;26.20;14.20;;;6.80;99.90;;;;;;5072491;28;20048;-79
2022/12/28 04:55:13;;;;;;;23.15;14.23;;;6.80;99.90;;;;;;5079048;28;20492;-81
2022/12/28 04:57:59;;;;;;;21.33;13.75;;;6.80;99.90;;;;;;5078727;28;20479;-77
2022/12/28 05:00:46;;;;;;;25.80;15.25;;;6.80;99.90;;;;;;5078644;28;20040;-80
2022/12/28 05:03:32;;;;;;;23.35;14.25;;;6.80;99.90;;;;;;5097534;28;20044;-79
2022/12/28 05:06:21;;;;;;;21.48;13.07;;;6.80;99.90;;;;;;5082107;28;20052;-77
2022/12/28 05:09:07;;;;;;;24.45;14.88;;;6.90;99.90;;;;;;5102638;28;20051;-79
2022/12/28 05:11:53;;;;;;;27.27;15.38;;;6.80;99.90;;;;;;5098726;28;20059;-80
2022/12/28 05:14:41;;;;;;;26.50;15.57;;;6.90;99.90;;;;;;5096719;28;20048;-80
2022/12/28 05:17:27;;;;;;;24.63;15.20;;;6.90;99.90;;;;;;5077956;28;20395;-83
2022/12/28 05:20:14;;;;;;;24.50;14.98;;;6.80;99.90;;;;;;5079518;28;20206;-86
2022/12/28 05:23:01;;;;;;;24.55;14.32;;;6.90;99.90;;;;;;5099726;28;20055;-84
2022/12/28 05:25:52;;;;;;;26.40;15.82;;;6.90;99.90;;;;;;5086705;28;20192;-82
2022/12/28 05:28:38;;;;;;;26.20;16.33;;;6.90;99.90;;;;;;5108630;28;20146;-83
2022/12/28 05:31:25;;;;;;;29.25;16.90;;;6.90;99.90;;;;;;5101566;28;20077;-78
2022/12/28 05:34:11;;;;;;;26.60;16.30;;;6.90;99.90;;;;;;5099225;28;20040;-80
2022/12/28 05:36:57;;;;;;;30.45;18.02;;;6.90;99.90;;;;;;5083168;28;20040;-79
2022/12/28 05:39:43;;;;;;;27.10;17.20;;;6.90;99.90;;;;;;5080339;28;20043;-83
2022/12/28 05:42:30;;;;;;;24.27;16.38;;;6.90;99.90;;;;;;5102143;28;20052;-78
2022/12/28 05:45:16;;;;;;;28.95;17.38;;;6.90;99.90;;;;;;5079252;28;20492;-83
2022/12/28 05:48:02;;;;;;;29.33;17.63;;;6.90;99.90;;;;;;5078982;28;20060;-82
2022/12/28 05:50:48;;;;;;;33.88;19.98;;;7.00;99.90;;;;;;5097298;28;20057;-81
2022/12/28 05:53:36;;;;;;;34.90;19.35;;;7.00;99.90;;;;;;5078564;28;20381;-77
2022/12/28 05:56:24;;;;;;;27.65;15.45;;;6.90;99.90;;;;;;5096610;28;20048;-78
2022/12/28 05:59:12;;;;;;;37.42;20.65;;;7.00;99.90;;;;;;5078435;28;20391;-78
2022/12/28 06:01:58;;;;;;;31.83;19.20;;;7.00;99.90;;;;;;5096813;28;20062;-79
2022/12/28 06:04:44;;;;;;;38.92;20.60;;;7.10;99.90;;;;;;5094591;28;20048;-82
2022/12/28 06:07:31;;;;;;;37.60;21.52;;;7.00;99.90;;;;;;5074714;28;20051;-85
2022/12/28 06:10:17;;;;;;;36.90;20.38;;;7.10;99.90;;;;;;5093138;28;20101;-79
2022/12/28 06:13:03;;;;;;;37.67;21.33;;;7.10;99.90;;;;;;5073938;28;20055;-82
2022/12/28 06:15:49;;;;;;;33.83;22.33;;;7.10;99.90;;;;;;5091727;28;20044;-78
2022/12/28 06:18:36;;;;;;;34.13;20.08;;;7.10;99.90;;;;;;5092624;28;20127;-79
2022/12/28 06:21:24;;;;;;;39.47;20.58;;;7.20;99.90;;;;;;5093302;28;20511;-78
2022/12/28 06:24:12;;;;;;;36.50;20.45;;;7.30;99.90;;;;;;5091456;28;20084;-81
2022/12/28 06:26:58;;;;;;;40.85;19.90;;;7.30;99.90;;;;;;5093197;28;20052;-77
2022/12/28 06:29:44;;;;;;;30.15;17.60;;;7.40;99.90;;;;;;5092813;28;20412;-79
2022/12/28 06:32:31;;;;;;;35.20;19.40;;;7.50;99.90;;;;;;5091495;28;20048;-77
2022/12/28 06:35:18;;;;;;;29.42;17.67;;;7.50;99.90;;;;;;5092875;28;20044;-83
2022/12/28 06:38:04;;;;;;;25.50;16.15;;;7.60;99.90;;;;;;5091688;28;20044;-84
2022/12/28 06:40:50;;;;;;;28.00;15.45;;;7.70;99.90;;;;;;5077176;28;20063;-77
2022/12/28 06:43:37;;;;;;;31.25;13.45;;;7.70;99.90;;;;;;5082228;28;20048;-84
2022/12/28 06:46:26;;;;;;;26.50;13.45;;;7.80;99.90;;;;;;5101092;28;20076;-76
2022/12/28 06:49:12;;;;;;;20.55;12.60;;;7.90;99.90;;;;;;5079031;28;20127;-78
2022/12/28 06:51:59;;;;;;;18.25;11.93;;;8.00;99.90;;;;;;5090168;28;20055;-79
2022/12/28 06:54:45;;;;;;;19.08;11.35;;;8.00;99.90;;;;;;5077727;28;20130;-82
2022/12/28 06:57:31;;;;;;;21.02;11.45;;;8.00;99.90;;;;;;5091792;28;20055;-78
2022/12/28 07:00:18;;;;;;;20.20;11.18;;;8.00;99.90;;;;;;5092321;28;20093;-79
2022/12/28 07:03:04;;;;;;;22.23;11.98;;;8.10;99.90;;;;;;5072436;28;20462;-82
2022/12/28 07:05:50;;;;;;;27.58;14.77;;;8.10;99.90;;;;;;5091685;28;20052;-83
2022/12/28 07:08:36;;;;;;;19.02;11.80;;;8.10;99.90;;;;;;5073303;28;20067;-83
2022/12/28 07:11:23;;;;;;;23.75;13.05;;;8.10;99.90;;;;;;5099940;28;20044;-84
2022/12/28 07:14:09;;;;;;;22.65;12.77;;;8.10;99.90;;;;;;5090408;28;20055;-77
2022/12/28 07:16:55;;;;;;;30.58;12.98;;;8.10;99.90;;;;;;5090996;28;20052;-78
2022/12/28 07:19:42;;;;;;;22.20;12.38;;;8.10;99.90;;;;;;5072454;28;20113;-77
2022/12/28 07:22:28;;;;;;;24.58;12.18;;;8.10;99.90;;;;;;5071895;28;20059;-77
2022/12/28 07:25:14;;;;;;;22.33;11.30;;;8.10;99.90;;;;;;5072033;28;20471;-78
2022/12/28 07:28:00;;;;;;;17.00;11.05;;;8.10;99.90;;;;;;5071672;28;20093;-76
2022/12/28 07:30:46;;;;;;;23.02;11.50;;;8.20;99.90;;;;;;5090337;28;20544;-82
2022/12/28 07:33:34;;;;;;;20.65;10.30;;;8.20;99.90;;;;;;5073555;28;20097;-78
2022/12/28 07:36:21;;;;;;;27.48;10.70;;;8.20;99.90;;;;;;5071840;28;20048;-77
2022/12/28 07:39:09;;;;;;;26.38;10.57;;;8.30;99.90;;;;;;5091799;28;20047;-81
2022/12/28 07:41:55;;;;;;;18.95;11.13;;;8.20;99.90;;;;;;5090050;28;20056;-80
2022/12/28 07:44:44;;;;;;;26.33;12.00;;;8.30;99.90;;;;;;5091086;28;20093;-77
2022/12/28 07:47:32;;;;;;;24.08;9.40;;;8.20;99.90;;;;;;5090222;28;20142;-78
2022/12/28 07:50:18;;;;;;;28.20;10.40;;;8.30;99.90;;;;;;5071686;28;20086;-82
2022/12/28 07:53:04;;;;;;;29.52;9.35;;;8.30;99.90;;;;;;5092380;28;20040;-84
2022/12/28 07:55:58;;;;;;;19.35;7.40;;;8.30;99.90;;;;;;5076156;28;20048;-85
2022/12/28 07:58:52;;;;;;;28.38;8.75;;;8.40;99.90;;;;;;5092592;28;20159;-79
2022/12/28 08:01:38;;;;;;;34.40;9.02;;;8.40;99.90;;;;;;5089695;28;20040;-82
2022/12/28 08:04:25;;;;;;;25.13;7.63;;;8.30;99.90;;;;;;5090864;28;20072;-81
2022/12/28 08:07:11;;;;;;;14.40;5.45;;;8.30;99.90;;;;;;5071572;28;20142;-79
2022/12/28 08:09:57;;;;;;;13.20;4.75;;;8.20;99.90;;;;;;5090485;28;20051;-78
2022/12/28 08:12:43;;;;;;;16.35;3.88;;;8.20;99.90;;;;;;5090223;28;20059;-76
2022/12/28 08:15:30;;;;;;;14.40;3.25;;;8.10;99.90;;;;;;5093379;28;20450;-76
2022/12/28 08:18:16;;;;;;;8.32;2.50;;;8.10;99.90;;;;;;5096394;28;20055;-79
2022/12/28 08:21:04;;;;;;;10.13;1.85;;;8.00;99.90;;;;;;5090541;28;20063;-81
2022/12/28 08:23:51;;;;;;;15.38;2.80;;;8.00;99.90;;;;;;5091114;28;20496;-78
2022/12/28 08:26:39;;;;;;;13.95;2.90;;;8.00;99.90;;;;;;5090992;28;20044;-78
2022/12/28 08:29:25;;;;;;;22.85;4.28;;;8.00;99.90;;;;;;5088631;28;20076;-79
2022/12/28 08:32:12;;;;;;;24.48;5.13;;;8.00;99.90;;;;;;5089817;28;20133;-85
2022/12/28 08:34:58;;;;;;;32.15;6.03;;;8.00;99.90;;;;;;5071278;28;20048;-85
2022/12/28 08:37:44;;;;;;;34.75;7.20;;;8.10;99.90;;;;;;5060446;28;20158;-82
2022/12/28 08:40:30;;;;;;;33.85;7.95;;;8.10;99.90;;;;;;5091954;28;20051;-79
2022/12/28 08:43:16;;;;;;;29.73;8.05;;;8.10;99.90;;;;;;5071148;28;20059;-78
2022/12/28 08:46:26;;;;;;;23.75;7.68;;;8.10;99.90;;;;;;5071829;28;20055;-77
2022/12/28 08:49:13;;;;;;;20.08;8.45;;;8.20;99.90;;;;;;5071555;28;20055;-78
2022/12/28 08:51:59;;;;;;;25.15;7.00;;;8.20;99.90;;;;;;5071688;28;20125;-78
2022/12/28 08:54:45;;;;;;;18.10;5.60;;;8.20;99.90;;;;;;5056748;28;20504;-79
2022/12/28 08:57:32;;;;;;;13.32;5.72;;;8.20;99.90;;;;;;5089627;28;20040;-78
2022/12/28 09:00:18;;;;;;;16.55;5.93;;;8.20;99.90;;;;;;5088876;28;20052;-78
2022/12/28 09:03:05;;;;;;;18.52;5.60;;;8.20;99.90;;;;;;5071449;28;20138;-77
2022/12/28 09:05:51;;;;;;;14.70;5.55;;;8.20;99.90;;;;;;5071580;28;20048;-80
2022/12/28 09:08:38;;;;;;;13.07;5.05;;;8.20;99.90;;;;;;5090190;28;20059;-78
2022/12/28 09:11:24;;;;;;;10.90;5.00;;;8.20;99.90;;;;;;5094728;28;20080;-77
2022/12/28 09:14:12;;;;;;;10.82;4.78;;;8.20;99.90;;;;;;5100941;28;20052;-83
2022/12/28 09:17:00;;;;;;;11.40;4.20;;;8.20;99.90;;;;;;5077593;28;20052;-77
2022/12/28 09:19:46;;;;;;;8.95;3.70;;;8.30;99.90;;;;;;5072436;28;20097;-78
2022/12/28 09:22:33;;;;;;;7.88;3.40;;;8.30;99.90;;;;;;5090015;28;20510;-77
2022/12/28 09:25:19;;;;;;;12.82;4.65;;;8.30;99.90;;;;;;5089878;28;20760;-79
2022/12/28 09:28:05;;;;;;;8.02;3.80;;;8.30;99.90;;;;;;5081116;28;20070;-79
2022/12/28 09:30:51;;;;;;;6.95;2.65;;;8.30;99.90;;;;;;5072585;28;20105;-79
2022/12/28 09:36:43;;;;;;;9.70;2.83;;;8.30;99.90;;;;;;5071522;28;20055;-78
2022/12/28 09:39:29;;;;;;;9.07;2.45;;;8.40;99.90;;;;;;5072711;28;20454;-82
2022/12/28 09:42:22;;;;;;;6.05;2.28;;;8.30;99.90;;;;;;5092909;28;20052;-79
2022/12/28 09:45:11;;;;;;;6.35;2.03;;;8.30;99.90;;;;;;5076074;28;20240;-77
2022/12/28 09:48:02;;;;;;;4.57;1.40;;;8.30;99.90;;;;;;5094454;28;20070;-80
2022/12/28 09:50:49;;;;;;;6.72;1.40;;;8.30;99.90;;;;;;5093290;28;20411;-79
2022/12/28 09:53:36;;;;;;;5.05;1.42;;;8.30;99.90;;;;;;5093470;28;20056;-83
2022/12/28 09:56:35;;;;;;;7.78;1.33;;;8.30;99.90;;;;;;5074619;28;20470;-80
2022/12/28 09:59:30;;;;;;;3.47;0.93;;;8.30;99.90;;;;;;5063401;28;20056;-78
2022/12/28 10:02:28;;;;;;;4.20;1.10;;;8.30;99.90;;;;;;5096428;28;20135;-78
2022/12/28 10:05:15;;;;;;;7.03;1.40;;;8.30;99.90;;;;;;5077974;28;20476;-79
2022/12/28 10:08:01;;;;;;;4.93;1.13;;;8.30;99.90;;;;;;5102240;28;20105;-76
2022/12/28 10:10:49;;;;;;;3.85;1.40;;;8.30;99.90;;;;;;5103518;28;20058;-79
2022/12/28 10:13:38;;;;;;;3.63;0.90;;;8.30;99.90;;;;;;5084558;28;20048;-81
2022/12/28 10:16:30;;;;;;;4.55;1.15;;;8.30;99.90;;;;;;5074826;28;20060;-82
2022/12/28 10:19:23;;;;;;;9.00;1.40;;;8.30;99.90;;;;;;5075018;28;20052;-78
2022/12/28 10:22:18;;;;;;;7.40;2.13;;;8.30;99.90;;;;;;5074165;28;20052;-80
2022/12/28 10:25:16;;;;;;;7.15;2.63;;;8.30;99.90;;;;;;5067960;28;20055;-81
2022/12/28 10:28:06;;;;;;;6.10;2.53;;;8.30;99.90;;;;;;5075488;28;20095;-84
2022/12/28 10:31:08;;;;;;;8.15;3.08;;;8.30;99.90;;;;;;5075530;28;20052;-81
2022/12/28 10:33:54;;;;;;;7.80;2.85;;;8.30;99.90;;;;;;5072614;28;20059;-79
2022/12/28 10:36:40;;;;;;;7.82;3.33;;;8.30;99.90;;;;;;5091735;28;20547;-80
2022/12/28 10:39:28;;;;;;;8.38;3.40;;;8.30;99.90;;;;;;5090233;28;20083;-80
2022/12/28 10:42:35;;;;;;;7.80;3.90;;;8.40;99.90;;;;;;5090725;28;20052;-80
2022/12/28 10:45:32;;;;;;;8.40;3.80;;;8.40;99.90;;;;;;5076259;28;20048;-79
2022/12/28 10:48:21;;;;;;;8.35;3.88;;;8.30;99.90;;;;;;5058483;28;20058;-82
2022/12/28 10:51:20;;;;;;;8.38;3.85;;;8.40;99.90;;;;;;5073084;28;20113;-83
2022/12/28 10:54:25;;;;;;;8.82;3.60;;;8.40;99.90;;;;;;5067995;28;20052;-79
2022/12/28 10:57:30;;;;;;;9.27;3.50;;;8.50;99.90;;;;;;5081572;28;20044;-81
2022/12/28 11:00:21;;;;;;;8.70;3.70;;;8.50;99.90;;;;;;5073721;28;20447;-86
2022/12/28 11:03:22;;;;;;;6.32;3.65;;;8.60;99.90;;;;;;5091744;28;20394;-81
2022/12/28 11:06:11;;;;;;;7.65;4.60;;;8.60;99.90;;;;;;5090954;28;20504;-79
2022/12/28 11:09:08;;;;;;;8.45;4.07;;;8.60;99.90;;;;;;5073822;28;20404;-83
2022/12/28 11:12:16;;;;;;;9.50;4.65;;;8.60;99.90;;;;;;5092064;28;20786;-82
2022/12/28 11:15:02;;;;;;;11.98;6.07;;;8.60;99.90;;;;;;5072637;28;20051;-81
2022/12/28 11:18:13;;;;;;;10.80;7.13;;;8.70;99.90;;;;;;5058814;28;20052;-80
2022/12/28 11:20:59;;;;;;;13.85;9.13;;;8.70;99.90;;;;;;5059212;28;20091;-82
2022/12/28 11:23:48;;;;;;;9.55;6.40;;;8.70;99.90;;;;;;5072962;28;20044;-81
2022/12/28 11:26:34;;;;;;;8.88;5.28;;;8.60;99.90;;;;;;5091617;28;20083;-78
2022/12/28 11:29:20;;;;;;;13.15;6.20;;;8.60;99.90;;;;;;5074175;28;20056;-77
2022/12/28 11:32:37;;;;;;;13.35;6.70;;;8.50;99.90;;;;;;5096771;28;20135;-82
2022/12/28 11:35:30;;;;;;;15.38;8.43;;;8.50;99.90;;;;;;5081499;28;20048;-78
2022/12/28 11:38:46;;;;;;;17.63;8.93;;;8.50;99.90;;;;;;5077011;28;20519;-77
2022/12/28 11:41:36;;;;;;;;;;;8.50;99.90;;;;;;5091714;28;20044;-78
2022/12/28 11:44:42;;;;;;;22.17;10.00;;;8.50;99.90;;;;;;5074768;28;20016;-78
2022/12/28 11:47:32;;;;;;;16.95;9.90;;;8.50;99.90;;;;;;5060603;28;20556;-80
2022/12/28 11:50:35;;;;;;;13.98;7.75;;;8.50;99.90;;;;;;5089649;28;20044;-81
2022/12/28 11:53:44;;;;;;;11.32;6.85;;;8.60;99.90;;;;;;5090681;28;20040;-78
2022/12/28 11:56:43;;;;;;;9.07;5.20;;;8.60;99.90;;;;;;5062719;28;20127;-78
2022/12/28 11:59:31;;;;;;;8.20;4.63;;;8.60;99.90;;;;;;5091067;28;20051;-77
2022/12/28 12:02:26;;;;;;;9.30;5.47;;;8.60;99.90;;;;;;5090695;28;20052;-82
2022/12/28 12:05:38;;;;;;;11.50;5.95;;;8.60;99.90;;;;;;5090787;28;20044;-81
2022/12/28 12:08:30;;;;;;;10.30;5.85;;;8.60;99.90;;;;;;5072907;28;20052;-80
2022/12/28 12:11:29;;;;;;;8.48;5.68;;;8.60;99.90;;;;;;5076092;28;20462;-79
2022/12/28 12:14:22;;;;;;;10.18;6.55;;;8.60;99.90;;;;;;5075353;28;20047;-79
2022/12/28 12:17:41;;;;;;;10.88;6.45;;;8.60;99.90;;;;;;5091144;28;20530;-79
2022/12/28 12:20:59;;;;;;;10.93;6.22;;;8.60;99.90;;;;;;5091226;28;20060;-81
2022/12/28 12:24:02;;;;;;;11.32;6.45;;;8.60;99.90;;;;;;5089116;28;20048;-80
2022/12/28 12:26:52;;;;;;;12.38;6.43;;;8.60;99.90;;;;;;5071448;28;20403;-78
2022/12/28 12:29:42;;;;;;;10.48;6.60;;;8.60;99.90;;;;;;5091419;28;20152;-82
2022/12/28 12:32:44;;;;;;;10.85;6.25;;;8.60;99.90;;;;;;5090886;28;20048;-78
2022/12/28 12:35:45;;;;;;;7.97;5.20;;;8.70;99.90;;;;;;5072899;28;20051;-86
2022/12/28 12:38:46;;;;;;;8.70;5.68;;;8.60;99.90;;;;;;5089217;28;20132;-77
2022/12/28 12:42:00;;;;;;;11.10;5.97;;;8.60;99.90;;;;;;5091364;28;20079;-81
2022/12/28 12:45:04;;;;;;;10.77;7.32;;;8.60;99.90;;;;;;5073288;28;20048;-84
2022/12/28 12:48:02;;;;;;;11.85;7.78;;;8.60;99.90;;;;;;5072851;28;20055;-83
2022/12/28 12:50:49;;;;;;;10.50;7.35;;;8.60;99.90;;;;;;5092933;28;20052;-79
2022/12/28 12:54:06;;;;;;;10.23;7.22;;;8.60;99.90;;;;;;5091259;28;20054;-83
2022/12/28 12:56:59;;;;;;;11.85;6.70;;;8.60;99.90;;;;;;5075986;28;20419;-78
2022/12/28 13:00:06;;;;;;;10.95;6.68;;;8.60;99.90;;;;;;5098913;28;20052;-82
2022/12/28 13:03:05;;;;;;;11.35;7.45;;;8.60;99.90;;;;;;5083263;28;20044;-76
2022/12/28 13:05:57;;;;;;;8.98;5.93;;;8.60;99.90;;;;;;5093325;28;20047;-82
2022/12/28 13:09:14;;;;;;;10.80;6.78;;;8.60;99.90;;;;;;5075733;28;20052;-83
2022/12/28 13:12:02;;;;;;;8.45;5.57;;;8.60;99.90;;;;;;5092627;28;20135;-82
2022/12/28 13:14:57;;;;;;;9.77;5.60;;;8.60;99.90;;;;;;5092990;28;20143;-78
2022/12/28 13:17:59;;;;;;;9.80;6.47;;;8.60;99.90;;;;;;5077341;28;20076;-77
2022/12/28 13:21:00;;;;;;;12.75;6.53;;;8.60;99.90;;;;;;5079819;28;20048;-78
2022/12/28 13:23:48;;;;;;;9.65;5.82;;;8.60;99.90;;;;;;5075912;28;20097;-83
2022/12/28 13:26:41;;;;;;;10.60;6.38;;;8.60;99.90;;;;;;5074567;28;20063;-79
2022/12/28 13:29:33;;;;;;;10.07;7.00;;;8.60;99.90;;;;;;5060570;28;20048;-78
2022/12/28 13:32:35;;;;;;;11.18;6.53;;;8.60;99.90;;;;;;5075407;28;20059;-75
2022/12/28 13:35:24;;;;;;;10.88;6.82;;;8.60;99.90;;;;;;5075540;28;20094;-79
2022/12/28 13:38:17;;;;;;;10.60;6.20;;;8.50;99.90;;;;;;5073912;28;20561;-76
2022/12/28 13:41:06;;;;;;;8.90;6.32;;;8.60;99.90;;;;;;5074259;28;20052;-77
2022/12/28 13:43:58;;;;;;;8.82;6.00;;;8.60;99.90;;;;;;5092915;28;20040;-79
2022/12/28 13:46:50;;;;;;;9.05;5.30;;;8.50;99.90;;;;;;5077526;28;20047;-85
2022/12/28 13:50:00;;;;;;;7.55;5.60;;;8.60;99.90;;;;;;5066416;28;20445;-76
2022/12/28 13:53:06;;;;;;;10.55;5.32;;;8.50;99.90;;;;;;5077317;28;20048;-78
2022/12/28 13:55:57;;;;;;;12.73;5.20;;;8.50;99.90;;;;;;5094788;28;20062;-77
2022/12/28 13:58:55;;;;;;;8.82;4.82;;;8.40;99.90;;;;;;5073725;28;20499;-77
2022/12/28 14:01:43;;;;;;;8.65;5.20;;;8.40;99.90;;;;;;5092773;28;20559;-79
2022/12/28 14:04:30;;;;;;;10.82;5.05;;;8.40;99.90;;;;;;5088497;28;20063;-82
2022/12/28 14:07:18;;;;;;;8.07;4.43;;;8.30;99.90;;;;;;5072855;28;20134;-77
2022/12/28 14:10:04;;;;;;;10.45;5.30;;;8.30;99.90;;;;;;5093019;28;20089;-77
2022/12/28 14:12:52;;;;;;;10.13;4.90;;;8.20;99.90;;;;;;5092494;28;20083;-83
2022/12/28 14:15:38;;;;;;;10.57;4.45;;;8.20;99.90;;;;;;5092588;28;20051;-82
2022/12/28 14:18:25;;;;;;;7.32;3.60;;;8.20;99.90;;;;;;5076782;28;20055;-77
2022/12/28 14:21:11;;;;;;;12.57;3.72;;;8.10;99.90;;;;;;5092003;28;20060;-78
2022/12/28 14:24:10;;;;;;;10.50;4.15;;;8.10;99.90;;;;;;5099575;28;20044;-77
2022/12/28 14:26:57;;;;;;;10.45;3.88;;;8.10;99.90;;;;;;5092239;28;20074;-78
2022/12/28 14:29:45;;;;;;;11.35;3.80;;;8.10;99.90;;;;;;5092044;28;20407;-80
2022/12/28 14:32:33;;;;;;;10.25;4.38;;;8.10;99.90;;;;;;5091704;28;20492;-83
2022/12/28 14:35:23;;;;;;;10.77;5.15;;;8.10;99.90;;;;;;5074060;28;20125;-83
2022/12/28 14:38:18;;;;;;;8.52;4.90;;;8.10;99.90;;;;;;5091707;28;20412;-80
2022/12/28 14:41:04;;;;;;;10.98;5.30;;;8.10;99.90;;;;;;5074488;28;20816;-85
2022/12/28 14:43:54;;;;;;;11.95;5.70;;;8.10;99.90;;;;;;5090097;28;20059;-77
2022/12/28 14:46:41;;;;;;;13.35;5.55;;;8.10;99.90;;;;;;5059150;28;20105;-78
2022/12/28 14:49:27;;;;;;;12.02;5.50;;;8.20;99.90;;;;;;5091692;28;20083;-78
2022/12/28 14:52:17;;;;;;;13.93;5.57;;;8.20;99.90;;;;;;5075222;28;20052;-77
2022/12/28 14:55:19;;;;;;;15.75;5.13;;;8.20;99.90;;;;;;5061311;28;20154;-77
2022/12/28 14:58:19;;;;;;;15.88;6.38;;;8.20;99.90;;;;;;5094329;28;20040;-76
2022/12/28 15:01:10;;;;;;;14.10;7.50;;;8.30;99.90;;;;;;5092603;28;20055;-77
2022/12/28 15:04:02;;;;;;;14.35;5.63;;;8.30;99.90;;;;;;5091764;28;20044;-77
2022/12/28 15:06:48;;;;;;;11.27;5.10;;;8.30;99.90;;;;;;5091778;28;20055;-79
2022/12/28 15:09:37;;;;;;;12.73;5.43;;;8.30;99.90;;;;;;5072940;28;20048;-79
2022/12/28 15:12:24;;;;;;;15.50;4.88;;;8.30;99.90;;;;;;5091533;28;20136;-77
2022/12/28 15:15:10;;;;;;;16.90;5.18;;;8.30;99.90;;;;;;5090906;28;20389;-80
2022/12/28 15:17:56;;;;;;;13.82;4.97;;;8.40;99.90;;;;;;5072811;28;20052;-80
2022/12/28 15:20:42;;;;;;;12.98;4.75;;;8.40;99.90;;;;;;5073392;28;20048;-80